sensor_id;sensor_type;location;lat;lon;timestamp;P1;durP1;ratioP1;P2;durP2;ratioP2
75156;SDS011;63736;50.076;8.198;2023-06-22T00:01:55;1020.97;;;249.33;;
75156;SDS011;63736;50.076;8.198;2023-06-22T00:04:20;1022.65;;;250.35;;
75156;SDS011;63736;50.076;8.198;2023-06-22T00:06:46;1020.90;;;248.57;;
75156;SDS011;63736;50.076;8.198;2023-06-22T00:09:11;1018.10;;;248.03;;
75156;SDS011;63736;50.076;8.198;2023-06-22T00:11:37;1020.13;;;248.23;;
75156;SDS011;63736;50.076;8.198;2023-06-22T00:14:03;1020.00;;;248.65;;
75156;SDS011;63736;50.076;8.198;2023-06-22T00:16:28;1020.93;;;249.10;;
75156;SDS011;63736;50.076;8.198;2023-06-22T00:18:54;1026.13;;;250.45;;
75156;SDS011;63736;50.076;8.198;2023-06-22T00:21:19;1022.20;;;249.87;;
75156;SDS011;63736;50.076;8.198;2023-06-22T00:23:45;1025.20;;;252.35;;
75156;SDS011;63736;50.076;8.198;2023-06-22T00:26:11;1016.97;;;249.03;;
75156;SDS011;63736;50.076;8.198;2023-06-22T00:28:36;1012.77;;;248.10;;
75156;SDS011;63736;50.076;8.198;2023-06-22T00:31:01;1011.37;;;247.37;;
75156;SDS011;63736;50.076;8.198;2023-06-22T00:33:27;1014.23;;;249.00;;
75156;SDS011;63736;50.076;8.198;2023-06-22T00:35:53;1013.30;;;249.03;;
75156;SDS011;63736;50.076;8.198;2023-06-22T00:38:18;1008.55;;;245.70;;
75156;SDS011;63736;50.076;8.198;2023-06-22T00:40:44;1009.17;;;246.37;;
75156;SDS011;63736;50.076;8.198;2023-06-22T00:43:09;1007.70;;;244.97;;
75156;SDS011;63736;50.076;8.198;2023-06-22T00:45:34;1010.67;;;248.43;;
75156;SDS011;63736;50.076;8.198;2023-06-22T00:48:00;1008.93;;;248.33;;
75156;SDS011;63736;50.076;8.198;2023-06-22T00:50:26;1009.08;;;248.38;;
75156;SDS011;63736;50.076;8.198;2023-06-22T00:52:57;1003.13;;;245.90;;
75156;SDS011;63736;50.076;8.198;2023-06-22T00:55:24;1004.30;;;245.88;;
75156;SDS011;63736;50.076;8.198;2023-06-22T00:57:51;1004.03;;;245.43;;
75156;SDS011;63736;50.076;8.198;2023-06-22T01:00:20;1003.30;;;246.80;;
75156;SDS011;63736;50.076;8.198;2023-06-22T01:02:49;999.97;;;244.88;;
75156;SDS011;63736;50.076;8.198;2023-06-22T01:05:20;1001.42;;;246.50;;
75156;SDS011;63736;50.076;8.198;2023-06-22T01:16:03;1054.18;;;257.85;;
75156;SDS011;63736;50.076;8.198;2023-06-22T01:18:34;1080.78;;;263.80;;
75156;SDS011;63736;50.076;8.198;2023-06-22T01:21:02;1106.70;;;270.20;;
75156;SDS011;63736;50.076;8.198;2023-06-22T01:23:41;1111.60;;;270.40;;
75156;SDS011;63736;50.076;8.198;2023-06-22T01:26:38;1105.57;;;270.02;;
75156;SDS011;63736;50.076;8.198;2023-06-22T01:29:08;1083.72;;;266.88;;
75156;SDS011;63736;50.076;8.198;2023-06-22T01:31:37;1048.50;;;258.05;;
75156;SDS011;63736;50.076;8.198;2023-06-22T01:34:06;1046.68;;;257.73;;
75156;SDS011;63736;50.076;8.198;2023-06-22T01:36:32;1044.60;;;257.93;;
75156;SDS011;63736;50.076;8.198;2023-06-22T01:38:58;1042.60;;;257.48;;
75156;SDS011;63736;50.076;8.198;2023-06-22T01:41:25;1036.25;;;256.63;;
75156;SDS011;63736;50.076;8.198;2023-06-22T01:43:51;1032.07;;;255.93;;
75156;SDS011;63736;50.076;8.198;2023-06-22T01:46:18;1026.72;;;254.07;;
75156;SDS011;63736;50.076;8.198;2023-06-22T01:48:44;1024.60;;;253.57;;
75156;SDS011;63736;50.076;8.198;2023-06-22T01:51:10;1030.60;;;256.08;;
75156;SDS011;63736;50.076;8.198;2023-06-22T01:53:35;1030.97;;;256.23;;
75156;SDS011;63736;50.076;8.198;2023-06-22T01:56:01;1029.70;;;255.23;;
75156;SDS011;63736;50.076;8.198;2023-06-22T01:58:26;1030.90;;;256.13;;
75156;SDS011;63736;50.076;8.198;2023-06-22T02:01:15;1032.33;;;256.70;;
75156;SDS011;63736;50.076;8.198;2023-06-22T02:03:44;1030.90;;;255.98;;
75156;SDS011;63736;50.076;8.198;2023-06-22T02:06:18;1036.10;;;257.63;;
75156;SDS011;63736;50.076;8.198;2023-06-22T02:08:49;1030.47;;;256.58;;
75156;SDS011;63736;50.076;8.198;2023-06-22T02:11:20;1028.68;;;254.57;;
75156;SDS011;63736;50.076;8.198;2023-06-22T02:13:46;1029.20;;;255.20;;
75156;SDS011;63736;50.076;8.198;2023-06-22T02:16:13;1029.40;;;253.98;;
75156;SDS011;63736;50.076;8.198;2023-06-22T02:18:45;1030.13;;;254.63;;
75156;SDS011;63736;50.076;8.198;2023-06-22T02:21:11;1029.95;;;255.63;;
75156;SDS011;63736;50.076;8.198;2023-06-22T02:23:36;1029.57;;;256.43;;
75156;SDS011;63736;50.076;8.198;2023-06-22T02:26:02;1029.30;;;255.40;;
75156;SDS011;63736;50.076;8.198;2023-06-22T02:28:28;1030.88;;;255.43;;
75156;SDS011;63736;50.076;8.198;2023-06-22T02:30:53;1026.93;;;252.50;;
75156;SDS011;63736;50.076;8.198;2023-06-22T02:33:18;1026.57;;;254.80;;
75156;SDS011;63736;50.076;8.198;2023-06-22T02:35:44;1032.17;;;257.87;;
75156;SDS011;63736;50.076;8.198;2023-06-22T02:38:12;1030.00;;;255.93;;
75156;SDS011;63736;50.076;8.198;2023-06-22T02:40:38;1036.60;;;259.75;;
75156;SDS011;63736;50.076;8.198;2023-06-22T02:43:03;1035.57;;;256.00;;
75156;SDS011;63736;50.076;8.198;2023-06-22T02:45:29;1041.10;;;259.63;;
75156;SDS011;63736;50.076;8.198;2023-06-22T02:47:54;1039.82;;;256.90;;
75156;SDS011;63736;50.076;8.198;2023-06-22T02:50:20;1039.43;;;257.70;;
75156;SDS011;63736;50.076;8.198;2023-06-22T02:52:46;1036.80;;;255.33;;
75156;SDS011;63736;50.076;8.198;2023-06-22T02:55:11;1037.20;;;254.70;;
75156;SDS011;63736;50.076;8.198;2023-06-22T02:57:36;1040.70;;;258.77;;
75156;SDS011;63736;50.076;8.198;2023-06-22T03:00:03;1043.83;;;258.63;;
75156;SDS011;63736;50.076;8.198;2023-06-22T03:02:41;1051.22;;;260.27;;
75156;SDS011;63736;50.076;8.198;2023-06-22T03:05:06;1057.63;;;260.40;;
75156;SDS011;63736;50.076;8.198;2023-06-22T03:07:32;1062.67;;;261.87;;
75156;SDS011;63736;50.076;8.198;2023-06-22T03:09:57;1062.87;;;263.17;;
75156;SDS011;63736;50.076;8.198;2023-06-22T03:12:22;1077.53;;;265.07;;
75156;SDS011;63736;50.076;8.198;2023-06-22T03:14:47;1061.93;;;262.40;;
75156;SDS011;63736;50.076;8.198;2023-06-22T03:17:13;1057.20;;;262.30;;
75156;SDS011;63736;50.076;8.198;2023-06-22T03:19:38;1055.83;;;260.73;;
75156;SDS011;63736;50.076;8.198;2023-06-22T03:22:03;1047.40;;;258.27;;
75156;SDS011;63736;50.076;8.198;2023-06-22T03:24:29;1040.90;;;255.30;;
75156;SDS011;63736;50.076;8.198;2023-06-22T03:26:54;1043.37;;;258.20;;
75156;SDS011;63736;50.076;8.198;2023-06-22T03:29:20;1040.60;;;255.98;;
75156;SDS011;63736;50.076;8.198;2023-06-22T03:31:45;1039.27;;;255.57;;
75156;SDS011;63736;50.076;8.198;2023-06-22T03:34:10;1037.83;;;255.73;;
75156;SDS011;63736;50.076;8.198;2023-06-22T03:36:35;1037.77;;;257.47;;
75156;SDS011;63736;50.076;8.198;2023-06-22T03:39:01;1032.70;;;256.00;;
75156;SDS011;63736;50.076;8.198;2023-06-22T03:41:26;1033.90;;;257.07;;
75156;SDS011;63736;50.076;8.198;2023-06-22T03:43:52;1033.93;;;256.95;;
75156;SDS011;63736;50.076;8.198;2023-06-22T03:46:17;1030.30;;;254.50;;
75156;SDS011;63736;50.076;8.198;2023-06-22T03:48:42;1031.53;;;255.13;;
75156;SDS011;63736;50.076;8.198;2023-06-22T03:51:08;1029.47;;;254.30;;
75156;SDS011;63736;50.076;8.198;2023-06-22T03:53:33;1031.53;;;256.17;;
75156;SDS011;63736;50.076;8.198;2023-06-22T03:55:58;1029.70;;;255.90;;
75156;SDS011;63736;50.076;8.198;2023-06-22T03:58:23;1030.27;;;255.37;;
75156;SDS011;63736;50.076;8.198;2023-06-22T04:00:50;1028.50;;;253.40;;
75156;SDS011;63736;50.076;8.198;2023-06-22T04:03:16;1026.90;;;253.13;;
75156;SDS011;63736;50.076;8.198;2023-06-22T04:05:43;1027.30;;;252.43;;
75156;SDS011;63736;50.076;8.198;2023-06-22T04:08:09;1028.05;;;254.45;;
75156;SDS011;63736;50.076;8.198;2023-06-22T04:10:34;1029.03;;;254.03;;
75156;SDS011;63736;50.076;8.198;2023-06-22T04:13:00;1028.67;;;253.73;;
75156;SDS011;63736;50.076;8.198;2023-06-22T04:15:25;1028.80;;;253.40;;
75156;SDS011;63736;50.076;8.198;2023-06-22T04:17:51;1026.53;;;252.03;;
75156;SDS011;63736;50.076;8.198;2023-06-22T04:20:16;1026.23;;;251.27;;
75156;SDS011;63736;50.076;8.198;2023-06-22T04:22:41;1027.37;;;251.07;;
75156;SDS011;63736;50.076;8.198;2023-06-22T04:25:07;1025.33;;;250.77;;
75156;SDS011;63736;50.076;8.198;2023-06-22T04:27:33;1004.78;;;246.82;;
75156;SDS011;63736;50.076;8.198;2023-06-22T04:30:02;1002.90;;;248.20;;
75156;SDS011;63736;50.076;8.198;2023-06-22T04:32:32;999.47;;;245.93;;
75156;SDS011;63736;50.076;8.198;2023-06-22T04:34:57;1002.95;;;248.25;;
75156;SDS011;63736;50.076;8.198;2023-06-22T04:37:22;1001.40;;;247.33;;
75156;SDS011;63736;50.076;8.198;2023-06-22T04:39:48;1002.03;;;247.70;;
75156;SDS011;63736;50.076;8.198;2023-06-22T04:42:13;1000.38;;;247.63;;
75156;SDS011;63736;50.076;8.198;2023-06-22T04:44:39;995.80;;;244.97;;
75156;SDS011;63736;50.076;8.198;2023-06-22T04:47:04;997.60;;;244.30;;
75156;SDS011;63736;50.076;8.198;2023-06-22T04:49:33;998.42;;;245.25;;
75156;SDS011;63736;50.076;8.198;2023-06-22T04:52:01;1000.03;;;246.93;;
75156;SDS011;63736;50.076;8.198;2023-06-22T04:54:28;997.38;;;244.23;;
75156;SDS011;63736;50.076;8.198;2023-06-22T04:56:53;997.37;;;244.87;;
75156;SDS011;63736;50.076;8.198;2023-06-22T04:59:24;999.28;;;245.48;;
75156;SDS011;63736;50.076;8.198;2023-06-22T05:01:54;999.53;;;244.40;;
75156;SDS011;63736;50.076;8.198;2023-06-22T05:04:20;1000.87;;;245.90;;
75156;SDS011;63736;50.076;8.198;2023-06-22T05:06:47;998.78;;;243.98;;
75156;SDS011;63736;50.076;8.198;2023-06-22T05:09:12;1000.90;;;246.87;;
75156;SDS011;63736;50.076;8.198;2023-06-22T05:11:38;1002.37;;;247.83;;
75156;SDS011;63736;50.076;8.198;2023-06-22T05:14:03;1005.95;;;248.13;;
75156;SDS011;63736;50.076;8.198;2023-06-22T05:16:29;1002.00;;;246.53;;
75156;SDS011;63736;50.076;8.198;2023-06-22T05:18:54;1009.47;;;248.43;;
75156;SDS011;63736;50.076;8.198;2023-06-22T05:21:21;1018.38;;;248.50;;
75156;SDS011;63736;50.076;8.198;2023-06-22T05:23:48;1059.40;;;258.17;;
75156;SDS011;63736;50.076;8.198;2023-06-22T05:26:13;1093.07;;;263.48;;
75156;SDS011;63736;50.076;8.198;2023-06-22T05:28:38;1101.27;;;266.27;;
75156;SDS011;63736;50.076;8.198;2023-06-22T05:31:04;1109.67;;;269.03;;
75156;SDS011;63736;50.076;8.198;2023-06-22T05:33:29;1135.50;;;275.87;;
75156;SDS011;63736;50.076;8.198;2023-06-22T05:35:54;1144.07;;;278.53;;
75156;SDS011;63736;50.076;8.198;2023-06-22T05:38:19;1101.57;;;268.70;;
75156;SDS011;63736;50.076;8.198;2023-06-22T05:40:45;1074.03;;;263.87;;
75156;SDS011;63736;50.076;8.198;2023-06-22T05:43:10;1064.00;;;261.65;;
75156;SDS011;63736;50.076;8.198;2023-06-22T05:45:35;1021.37;;;249.57;;
75156;SDS011;63736;50.076;8.198;2023-06-22T05:48:01;1011.93;;;246.77;;
75156;SDS011;63736;50.076;8.198;2023-06-22T05:50:26;1066.30;;;260.90;;
75156;SDS011;63736;50.076;8.198;2023-06-22T05:52:51;1063.80;;;260.33;;
75156;SDS011;63736;50.076;8.198;2023-06-22T05:55:17;1087.87;;;265.57;;
75156;SDS011;63736;50.076;8.198;2023-06-22T05:57:43;1038.13;;;254.32;;
75156;SDS011;63736;50.076;8.198;2023-06-22T06:00:09;1031.15;;;254.77;;
75156;SDS011;63736;50.076;8.198;2023-06-22T06:02:36;1191.53;;;287.97;;
75156;SDS011;63736;50.076;8.198;2023-06-22T06:05:02;1068.45;;;262.45;;
75156;SDS011;63736;50.076;8.198;2023-06-22T06:07:28;1057.63;;;258.75;;
75156;SDS011;63736;50.076;8.198;2023-06-22T06:09:54;1083.55;;;265.95;;
75156;SDS011;63736;50.076;8.198;2023-06-22T06:12:19;1094.73;;;267.00;;
75156;SDS011;63736;50.076;8.198;2023-06-22T06:14:45;1103.93;;;269.57;;
75156;SDS011;63736;50.076;8.198;2023-06-22T06:17:10;1110.17;;;271.13;;
75156;SDS011;63736;50.076;8.198;2023-06-22T06:19:35;1109.47;;;273.90;;
75156;SDS011;63736;50.076;8.198;2023-06-22T06:22:01;1095.80;;;271.50;;
75156;SDS011;63736;50.076;8.198;2023-06-22T06:24:26;1106.30;;;271.33;;
75156;SDS011;63736;50.076;8.198;2023-06-22T06:26:51;1133.47;;;277.57;;
75156;SDS011;63736;50.076;8.198;2023-06-22T06:29:16;1099.50;;;271.00;;
75156;SDS011;63736;50.076;8.198;2023-06-22T06:31:42;1080.87;;;267.73;;
75156;SDS011;63736;50.076;8.198;2023-06-22T06:34:07;1079.80;;;267.23;;
75156;SDS011;63736;50.076;8.198;2023-06-22T06:36:32;1077.77;;;265.90;;
75156;SDS011;63736;50.076;8.198;2023-06-22T06:38:58;1064.90;;;263.50;;
75156;SDS011;63736;50.076;8.198;2023-06-22T06:41:23;1060.67;;;262.63;;
75156;SDS011;63736;50.076;8.198;2023-06-22T06:43:48;1059.80;;;262.20;;
75156;SDS011;63736;50.076;8.198;2023-06-22T06:46:14;1053.27;;;259.83;;
75156;SDS011;63736;50.076;8.198;2023-06-22T06:48:39;1056.70;;;261.33;;
75156;SDS011;63736;50.076;8.198;2023-06-22T06:51:04;1060.87;;;262.57;;
75156;SDS011;63736;50.076;8.198;2023-06-22T06:53:30;1078.25;;;266.83;;
75156;SDS011;63736;50.076;8.198;2023-06-22T06:55:56;1001.70;;;250.50;;
75156;SDS011;63736;50.076;8.198;2023-06-22T06:58:21;1026.82;;;257.05;;
75156;SDS011;63736;50.076;8.198;2023-06-22T07:00:47;1015.23;;;254.03;;
75156;SDS011;63736;50.076;8.198;2023-06-22T07:03:13;1010.15;;;253.63;;
75156;SDS011;63736;50.076;8.198;2023-06-22T07:05:39;1013.10;;;253.17;;
75156;SDS011;63736;50.076;8.198;2023-06-22T07:08:04;988.90;;;247.83;;
75156;SDS011;63736;50.076;8.198;2023-06-22T07:10:29;999.72;;;249.90;;
75156;SDS011;63736;50.076;8.198;2023-06-22T07:12:56;984.53;;;248.37;;
75156;SDS011;63736;50.076;8.198;2023-06-22T07:15:25;968.15;;;245.15;;
75156;SDS011;63736;50.076;8.198;2023-06-22T07:17:50;960.93;;;242.50;;
75156;SDS011;63736;50.076;8.198;2023-06-22T07:20:15;958.23;;;242.53;;
75156;SDS011;63736;50.076;8.198;2023-06-22T07:22:42;964.43;;;243.47;;
75156;SDS011;63736;50.076;8.198;2023-06-22T07:25:08;953.58;;;242.00;;
75156;SDS011;63736;50.076;8.198;2023-06-22T07:27:44;954.33;;;241.73;;
75156;SDS011;63736;50.076;8.198;2023-06-22T07:30:10;982.30;;;248.80;;
75156;SDS011;63736;50.076;8.198;2023-06-22T07:32:36;991.78;;;252.80;;
75156;SDS011;63736;50.076;8.198;2023-06-22T07:35:02;969.20;;;246.27;;
75156;SDS011;63736;50.076;8.198;2023-06-22T07:37:28;942.90;;;241.03;;
75156;SDS011;63736;50.076;8.198;2023-06-22T07:39:54;917.10;;;236.55;;
75156;SDS011;63736;50.076;8.198;2023-06-22T07:42:23;921.67;;;237.57;;
75156;SDS011;63736;50.076;8.198;2023-06-22T07:44:51;917.72;;;235.85;;
75156;SDS011;63736;50.076;8.198;2023-06-22T07:47:17;917.60;;;234.03;;
75156;SDS011;63736;50.076;8.198;2023-06-22T07:49:46;900.17;;;230.93;;
75156;SDS011;63736;50.076;8.198;2023-06-22T07:52:11;890.50;;;229.93;;
75156;SDS011;63736;50.076;8.198;2023-06-22T07:54:37;891.20;;;229.05;;
75156;SDS011;63736;50.076;8.198;2023-06-22T07:57:03;892.10;;;230.70;;
75156;SDS011;63736;50.076;8.198;2023-06-22T07:59:28;893.53;;;231.20;;
75156;SDS011;63736;50.076;8.198;2023-06-22T08:01:54;894.50;;;230.83;;
75156;SDS011;63736;50.076;8.198;2023-06-22T08:04:20;894.07;;;229.97;;
75156;SDS011;63736;50.076;8.198;2023-06-22T08:06:45;889.53;;;228.30;;
75156;SDS011;63736;50.076;8.198;2023-06-22T08:09:11;889.77;;;229.13;;
75156;SDS011;63736;50.076;8.198;2023-06-22T08:11:37;890.55;;;230.23;;
75156;SDS011;63736;50.076;8.198;2023-06-22T08:14:02;890.63;;;229.47;;
75156;SDS011;63736;50.076;8.198;2023-06-22T08:16:27;888.20;;;228.93;;
75156;SDS011;63736;50.076;8.198;2023-06-22T08:18:52;887.23;;;228.97;;
75156;SDS011;63736;50.076;8.198;2023-06-22T08:21:18;885.83;;;228.17;;
75156;SDS011;63736;50.076;8.198;2023-06-22T08:23:43;888.27;;;229.87;;
75156;SDS011;63736;50.076;8.198;2023-06-22T08:26:08;890.93;;;231.30;;
75156;SDS011;63736;50.076;8.198;2023-06-22T08:28:34;892.60;;;232.37;;
75156;SDS011;63736;50.076;8.198;2023-06-22T08:30:59;890.13;;;228.70;;
75156;SDS011;63736;50.076;8.198;2023-06-22T08:33:25;888.45;;;229.60;;
75156;SDS011;63736;50.076;8.198;2023-06-22T08:35:53;889.95;;;231.27;;
75156;SDS011;63736;50.076;8.198;2023-06-22T08:38:23;885.00;;;228.10;;
75156;SDS011;63736;50.076;8.198;2023-06-22T08:40:48;888.03;;;229.20;;
75156;SDS011;63736;50.076;8.198;2023-06-22T08:43:13;892.57;;;229.00;;
75156;SDS011;63736;50.076;8.198;2023-06-22T08:45:39;892.13;;;231.13;;
75156;SDS011;63736;50.076;8.198;2023-06-22T08:48:04;894.57;;;230.90;;
75156;SDS011;63736;50.076;8.198;2023-06-22T08:50:30;895.73;;;231.80;;
75156;SDS011;63736;50.076;8.198;2023-06-22T08:52:55;895.37;;;230.40;;
75156;SDS011;63736;50.076;8.198;2023-06-22T08:55:20;896.03;;;231.13;;
75156;SDS011;63736;50.076;8.198;2023-06-22T08:57:45;898.93;;;232.07;;
75156;SDS011;63736;50.076;8.198;2023-06-22T09:00:11;900.07;;;232.43;;
75156;SDS011;63736;50.076;8.198;2023-06-22T09:02:45;902.40;;;231.00;;
75156;SDS011;63736;50.076;8.198;2023-06-22T09:05:11;904.95;;;234.38;;
75156;SDS011;63736;50.076;8.198;2023-06-22T09:07:37;902.50;;;232.17;;
75156;SDS011;63736;50.076;8.198;2023-06-22T09:10:02;905.37;;;233.67;;
75156;SDS011;63736;50.076;8.198;2023-06-22T09:12:31;911.80;;;233.90;;
75156;SDS011;63736;50.076;8.198;2023-06-22T09:14:58;914.42;;;234.50;;
75156;SDS011;63736;50.076;8.198;2023-06-22T09:17:25;912.58;;;233.05;;
75156;SDS011;63736;50.076;8.198;2023-06-22T09:19:50;907.67;;;232.77;;
75156;SDS011;63736;50.076;8.198;2023-06-22T09:22:15;904.33;;;231.37;;
75156;SDS011;63736;50.076;8.198;2023-06-22T09:24:41;901.93;;;231.63;;
75156;SDS011;63736;50.076;8.198;2023-06-22T09:27:06;904.30;;;232.73;;
75156;SDS011;63736;50.076;8.198;2023-06-22T09:29:31;906.30;;;231.73;;
75156;SDS011;63736;50.076;8.198;2023-06-22T09:31:59;902.00;;;230.13;;
75156;SDS011;63736;50.076;8.198;2023-06-22T09:34:25;899.15;;;231.40;;
75156;SDS011;63736;50.076;8.198;2023-06-22T09:36:51;890.10;;;228.07;;
75156;SDS011;63736;50.076;8.198;2023-06-22T09:39:17;894.07;;;231.13;;
75156;SDS011;63736;50.076;8.198;2023-06-22T09:41:43;886.33;;;228.32;;
75156;SDS011;63736;50.076;8.198;2023-06-22T09:44:08;889.90;;;230.83;;
75156;SDS011;63736;50.076;8.198;2023-06-22T09:46:33;892.23;;;228.33;;
75156;SDS011;63736;50.076;8.198;2023-06-22T09:48:59;896.07;;;230.30;;
75156;SDS011;63736;50.076;8.198;2023-06-22T09:51:24;894.87;;;227.73;;
75156;SDS011;63736;50.076;8.198;2023-06-22T09:53:50;909.23;;;231.83;;
75156;SDS011;63736;50.076;8.198;2023-06-22T09:56:15;914.10;;;233.48;;
75156;SDS011;63736;50.076;8.198;2023-06-22T09:58:44;911.13;;;231.13;;
75156;SDS011;63736;50.076;8.198;2023-06-22T10:01:17;917.75;;;233.43;;
75156;SDS011;63736;50.076;8.198;2023-06-22T10:03:43;916.10;;;233.10;;
75156;SDS011;63736;50.076;8.198;2023-06-22T10:06:08;910.80;;;232.80;;
75156;SDS011;63736;50.076;8.198;2023-06-22T10:08:34;911.00;;;232.43;;
75156;SDS011;63736;50.076;8.198;2023-06-22T10:11:00;909.20;;;232.80;;
75156;SDS011;63736;50.076;8.198;2023-06-22T10:13:26;918.83;;;235.85;;
75156;SDS011;63736;50.076;8.198;2023-06-22T10:15:51;919.53;;;232.80;;
75156;SDS011;63736;50.076;8.198;2023-06-22T10:18:20;918.73;;;233.33;;
75156;SDS011;63736;50.076;8.198;2023-06-22T10:20:47;926.15;;;235.25;;
75156;SDS011;63736;50.076;8.198;2023-06-22T10:23:13;927.28;;;236.65;;
75156;SDS011;63736;50.076;8.198;2023-06-22T10:25:39;929.93;;;234.60;;
75156;SDS011;63736;50.076;8.198;2023-06-22T10:28:04;933.63;;;235.77;;
75156;SDS011;63736;50.076;8.198;2023-06-22T10:30:30;936.77;;;235.87;;
75156;SDS011;63736;50.076;8.198;2023-06-22T10:32:55;939.67;;;236.47;;
75156;SDS011;63736;50.076;8.198;2023-06-22T10:35:20;938.60;;;236.10;;
75156;SDS011;63736;50.076;8.198;2023-06-22T10:37:46;938.77;;;236.80;;
75156;SDS011;63736;50.076;8.198;2023-06-22T10:40:12;943.03;;;240.30;;
75156;SDS011;63736;50.076;8.198;2023-06-22T10:42:39;944.42;;;237.82;;
75156;SDS011;63736;50.076;8.198;2023-06-22T10:45:05;945.87;;;239.63;;
75156;SDS011;63736;50.076;8.198;2023-06-22T10:47:31;943.13;;;238.45;;
75156;SDS011;63736;50.076;8.198;2023-06-22T10:49:56;942.20;;;238.00;;
75156;SDS011;63736;50.076;8.198;2023-06-22T10:52:21;939.53;;;237.90;;
75156;SDS011;63736;50.076;8.198;2023-06-22T10:54:47;939.97;;;238.00;;
75156;SDS011;63736;50.076;8.198;2023-06-22T10:57:12;934.43;;;236.37;;
75156;SDS011;63736;50.076;8.198;2023-06-22T10:59:37;939.80;;;240.17;;
75156;SDS011;63736;50.076;8.198;2023-06-22T11:02:02;933.63;;;235.60;;
75156;SDS011;63736;50.076;8.198;2023-06-22T11:04:28;934.73;;;235.47;;
75156;SDS011;63736;50.076;8.198;2023-06-22T11:06:53;933.43;;;234.43;;
75156;SDS011;63736;50.076;8.198;2023-06-22T11:09:18;933.23;;;235.63;;
75156;SDS011;63736;50.076;8.198;2023-06-22T11:11:49;935.03;;;236.20;;
75156;SDS011;63736;50.076;8.198;2023-06-22T11:14:18;937.17;;;237.20;;
75156;SDS011;63736;50.076;8.198;2023-06-22T11:16:43;933.30;;;237.23;;
75156;SDS011;63736;50.076;8.198;2023-06-22T11:19:09;929.20;;;233.80;;
75156;SDS011;63736;50.076;8.198;2023-06-22T11:21:34;926.43;;;234.13;;
75156;SDS011;63736;50.076;8.198;2023-06-22T11:24:00;927.23;;;234.47;;
75156;SDS011;63736;50.076;8.198;2023-06-22T11:26:25;929.15;;;235.50;;
75156;SDS011;63736;50.076;8.198;2023-06-22T11:28:54;921.58;;;231.73;;
75156;SDS011;63736;50.076;8.198;2023-06-22T11:31:20;922.77;;;233.43;;
75156;SDS011;63736;50.076;8.198;2023-06-22T11:33:45;923.57;;;233.73;;
75156;SDS011;63736;50.076;8.198;2023-06-22T11:36:12;925.97;;;235.85;;
75156;SDS011;63736;50.076;8.198;2023-06-22T11:38:37;918.67;;;231.57;;
75156;SDS011;63736;50.076;8.198;2023-06-22T11:41:05;914.93;;;230.60;;
75156;SDS011;63736;50.076;8.198;2023-06-22T11:43:31;919.42;;;232.73;;
75156;SDS011;63736;50.076;8.198;2023-06-22T11:45:56;919.43;;;232.83;;
75156;SDS011;63736;50.076;8.198;2023-06-22T11:48:22;917.55;;;233.35;;
75156;SDS011;63736;50.076;8.198;2023-06-22T11:50:48;917.53;;;232.40;;
75156;SDS011;63736;50.076;8.198;2023-06-22T11:53:14;917.07;;;231.70;;
75156;SDS011;63736;50.076;8.198;2023-06-22T11:55:41;918.60;;;230.48;;
75156;SDS011;63736;50.076;8.198;2023-06-22T11:58:07;922.07;;;231.40;;
75156;SDS011;63736;50.076;8.198;2023-06-22T12:00:33;923.50;;;234.40;;
75156;SDS011;63736;50.076;8.198;2023-06-22T12:02:58;922.17;;;231.30;;
75156;SDS011;63736;50.076;8.198;2023-06-22T12:05:23;922.23;;;232.60;;
75156;SDS011;63736;50.076;8.198;2023-06-22T12:07:49;922.92;;;233.63;;
75156;SDS011;63736;50.076;8.198;2023-06-22T12:10:15;923.20;;;233.20;;
75156;SDS011;63736;50.076;8.198;2023-06-22T12:12:41;925.15;;;233.48;;
75156;SDS011;63736;50.076;8.198;2023-06-22T12:15:07;920.78;;;231.98;;
75156;SDS011;63736;50.076;8.198;2023-06-22T12:17:34;920.90;;;231.93;;
75156;SDS011;63736;50.076;8.198;2023-06-22T12:19:59;920.90;;;232.35;;
75156;SDS011;63736;50.076;8.198;2023-06-22T12:22:25;921.10;;;232.50;;
75156;SDS011;63736;50.076;8.198;2023-06-22T12:24:50;920.87;;;233.10;;
75156;SDS011;63736;50.076;8.198;2023-06-22T12:27:16;919.53;;;233.73;;
75156;SDS011;63736;50.076;8.198;2023-06-22T12:29:43;921.65;;;233.93;;
75156;SDS011;63736;50.076;8.198;2023-06-22T12:32:10;916.40;;;232.52;;
75156;SDS011;63736;50.076;8.198;2023-06-22T12:34:38;912.13;;;232.38;;
75156;SDS011;63736;50.076;8.198;2023-06-22T12:37:03;911.63;;;231.53;;
75156;SDS011;63736;50.076;8.198;2023-06-22T12:39:30;916.88;;;234.13;;
75156;SDS011;63736;50.076;8.198;2023-06-22T12:41:55;911.80;;;231.20;;
75156;SDS011;63736;50.076;8.198;2023-06-22T12:44:21;912.30;;;232.50;;
75156;SDS011;63736;50.076;8.198;2023-06-22T12:46:46;912.70;;;233.00;;
75156;SDS011;63736;50.076;8.198;2023-06-22T12:49:11;913.40;;;230.10;;
75156;SDS011;63736;50.076;8.198;2023-06-22T12:51:39;912.93;;;230.97;;
75156;SDS011;63736;50.076;8.198;2023-06-22T12:54:06;912.33;;;231.30;;
75156;SDS011;63736;50.076;8.198;2023-06-22T12:56:31;914.47;;;231.20;;
75156;SDS011;63736;50.076;8.198;2023-06-22T12:58:57;911.10;;;230.82;;
75156;SDS011;63736;50.076;8.198;2023-06-22T13:01:22;910.00;;;229.10;;
75156;SDS011;63736;50.076;8.198;2023-06-22T13:03:47;909.67;;;231.27;;
75156;SDS011;63736;50.076;8.198;2023-06-22T13:06:13;909.90;;;229.77;;
75156;SDS011;63736;50.076;8.198;2023-06-22T13:08:38;915.97;;;234.07;;
75156;SDS011;63736;50.076;8.198;2023-06-22T13:11:03;913.83;;;232.93;;
75156;SDS011;63736;50.076;8.198;2023-06-22T13:13:29;907.63;;;229.20;;
75156;SDS011;63736;50.076;8.198;2023-06-22T13:15:54;907.07;;;228.73;;
75156;SDS011;63736;50.076;8.198;2023-06-22T13:18:19;910.73;;;230.63;;
75156;SDS011;63736;50.076;8.198;2023-06-22T13:20:44;909.50;;;230.67;;
75156;SDS011;63736;50.076;8.198;2023-06-22T13:23:10;909.03;;;231.07;;
75156;SDS011;63736;50.076;8.198;2023-06-22T13:25:36;909.15;;;232.27;;
75156;SDS011;63736;50.076;8.198;2023-06-22T13:28:01;907.70;;;231.00;;
75156;SDS011;63736;50.076;8.198;2023-06-22T13:30:26;908.03;;;231.53;;
75156;SDS011;63736;50.076;8.198;2023-06-22T13:32:52;911.00;;;232.30;;
75156;SDS011;63736;50.076;8.198;2023-06-22T13:35:17;907.93;;;230.13;;
75156;SDS011;63736;50.076;8.198;2023-06-22T13:37:43;907.40;;;230.60;;
75156;SDS011;63736;50.076;8.198;2023-06-22T13:40:08;907.20;;;231.87;;
75156;SDS011;63736;50.076;8.198;2023-06-22T13:42:34;907.92;;;231.88;;
75156;SDS011;63736;50.076;8.198;2023-06-22T13:44:59;904.80;;;230.63;;
75156;SDS011;63736;50.076;8.198;2023-06-22T13:47:25;903.47;;;230.23;;
75156;SDS011;63736;50.076;8.198;2023-06-22T13:49:50;904.37;;;231.10;;
75156;SDS011;63736;50.076;8.198;2023-06-22T13:52:15;903.27;;;229.30;;
75156;SDS011;63736;50.076;8.198;2023-06-22T13:54:40;905.23;;;229.97;;